Time;durP1;ratioP1;P1;durP2;ratioP2;P2;SDS_P1;SDS_P2;PMS_P1;PMS_P2;Temp;Humidity;BMP_temperature;BMP_pressure;BME280_temperature;BME280_humidity;BME280_pressure;Samples;Min_cycle;Max_cycle;Signal;HPM_P1;HPM_P2
2023/08/04 00:06:20;;;;;;;2.15;1.35;;;;;;;17.54;72.84;100085.94;15607857;28;20073;-52
2023/08/04 00:13:54;;;;;;;;;;;;;;;17.56;72.70;100100.84;15638608;28;20045;-47
2023/08/04 00:21:27;;;;;;;4.28;1.67;;;;;;;17.84;72.78;100104.94;15639449;28;19921;-51
2023/08/04 00:29:02;;;;;;;4.50;1.55;;;;;;;17.42;74.76;100107.91;15599633;28;20047;-47
2023/08/04 00:36:35;;;;;;;6.18;1.80;;;;;;;17.16;76.14;100111.66;15549674;28;20071;-52
2023/08/04 00:44:11;;;;;;;4.20;1.77;;;;;;;17.48;75.13;100114.13;15599859;28;20045;-47
2023/08/04 00:51:44;;;;;;;4.20;1.98;;;;;;;17.30;76.17;100120.94;15563397;28;20065;-46
2023/08/04 00:59:18;;;;;;;;;;;;;;;17.58;75.52;100131.25;15522264;28;20096;-50
2023/08/04 01:07:02;;;;;;;4.80;2.35;;;;;;;17.34;76.26;100141.81;15520635;28;19961;-50
2023/08/04 01:14:39;;;;;;;4.97;2.10;;;;;;;17.30;76.25;100138.03;15608279;28;20424;-48
2023/08/04 01:22:13;;;;;;;5.47;2.40;;;;;;;17.39;75.86;100153.75;15642180;28;20397;-50
2023/08/04 01:29:51;;;;;;;6.95;3.13;;;;;;;17.32;76.34;100170.28;15607034;28;20046;-48
2023/08/04 01:37:27;;;;;;;6.88;2.60;;;;;;;17.44;75.18;100199.88;15595266;28;20053;-46
2023/08/04 01:45:01;;;;;;;7.75;2.85;;;;;;;17.94;74.09;100223.56;15595393;28;20135;-47
2023/08/04 01:52:36;;;;;;;7.93;3.08;;;;;;;17.65;74.59;100244.97;15592753;28;20131;-50
2023/08/04 02:00:13;;;;;;;6.90;2.88;;;;;;;17.71;74.55;100262.06;15577263;28;20065;-47
2023/08/04 02:07:47;;;;;;;6.15;3.10;;;;;;;17.36;75.74;100258.22;15610729;28;20038;-47
2023/08/04 02:15:22;;;;;;;6.18;2.90;;;;;;;17.39;75.33;100268.50;15607206;28;20068;-49
2023/08/04 02:22:57;;;;;;;5.80;3.00;;;;;;;17.17;76.43;100284.19;15611475;28;20068;-48
2023/08/04 02:30:30;;;;;;;8.52;3.28;;;;;;;17.08;77.24;100276.53;15591975;28;20049;-54
2023/08/04 02:38:06;;;;;;;6.95;3.15;;;;;;;17.09;76.54;100269.22;15610355;28;20428;-50
2023/08/04 02:45:39;;;;;;;5.72;3.28;;;;;;;17.37;75.23;100280.72;15609962;28;20049;-51
2023/08/04 02:53:13;;;;;;;8.85;2.92;;;;;;;17.44;74.79;100279.41;15591259;28;20056;-49
2023/08/04 03:00:46;;;;;;;8.07;3.28;;;;;;;17.31;74.69;100290.75;15562815;28;20491;-47
2023/08/04 03:08:21;;;;;;;9.95;3.53;;;;;;;17.42;74.18;100289.69;15547919;28;20089;-48
2023/08/04 03:15:56;;;;;;;11.07;3.83;;;;;;;16.91;75.21;100297.59;15585792;28;20522;-49
2023/08/04 03:23:30;;;;;;;9.70;3.70;;;;;;;17.58;72.67;100293.28;15591469;28;20037;-50
2023/08/04 03:31:04;;;;;;;7.95;4.10;;;;;;;17.20;72.79;100305.31;15591101;28;20100;-50
2023/08/04 03:38:39;;;;;;;11.40;3.58;;;;;;;17.01;74.07;100318.53;15608922;28;20136;-47
2023/08/04 03:46:12;;;;;;;10.02;4.05;;;;;;;17.10;72.80;100319.66;15573709;28;20119;-51
2023/08/04 03:53:46;;;;;;;;;;;;;;;16.71;74.69;100329.97;15560356;28;20540;-52
2023/08/04 04:01:19;;;;;;;18.35;4.80;;;;;;;16.87;74.27;100336.34;15604068;28;19921;-46
2023/08/04 04:08:54;;;;;;;13.57;4.88;;;;;;;17.11;73.00;100351.13;15591829;28;20490;-52
2023/08/04 04:16:29;;;;;;;12.85;4.22;;;;;;;17.20;72.34;100348.72;15653432;28;20045;-46
2023/08/04 04:24:05;;;;;;;10.13;4.22;;;;;;;17.14;73.03;100366.88;15582313;28;20054;-47
2023/08/04 04:31:38;;;;;;;10.43;4.25;;;;;;;17.24;73.21;100380.47;15598165;28;20034;-51
2023/08/04 04:39:13;;;;;;;9.65;4.03;;;;;;;17.17;73.98;100396.19;15600263;28;20045;-47
2023/08/04 04:46:46;;;;;;;15.30;4.65;;;;;;;17.18;73.04;100394.28;15617246;28;20425;-49
2023/08/04 04:54:20;;;;;;;;;;;;;;;17.10;73.05;100403.72;15617530;28;20049;-49
2023/08/04 05:01:53;;;;;;;14.65;4.22;;;;;;;16.97;73.14;100420.44;15616449;28;19921;-46
2023/08/04 05:09:28;;;;;;;9.93;3.72;;;;;;;16.94;73.64;100435.34;15597280;28;20042;-54
2023/08/04 05:17:01;;;;;;;12.23;4.00;;;;;;;16.92;74.34;100436.69;15671950;28;20044;-52
2023/08/04 05:24:35;;;;;;;12.65;4.78;;;;;;;17.12;73.49;100433.31;15659347;28;20049;-46
2023/08/04 05:32:09;;;;;;;12.20;4.10;;;;;;;17.29;73.08;100429.34;15676572;28;20124;-55
2023/08/04 05:39:43;;;;;;;14.60;3.65;;;;;;;17.74;71.55;100438.03;15657834;28;20056;-49
2023/08/04 05:47:17;;;;;;;9.98;3.30;;;;;;;17.67;71.36;100450.97;15657997;28;20053;-50
2023/08/04 05:54:55;;;;;;;7.38;3.17;;;;;;;17.96;69.57;100457.66;15675099;28;20053;-46
2023/08/04 06:02:28;;;;;;;9.02;3.42;;;;;;;18.23;67.91;100471.06;15656264;28;20053;-52
2023/08/04 06:10:08;;;;;;;12.13;3.20;;;;;;;18.14;67.39;100478.09;15734444;22;20151;-54
2023/08/04 06:17:41;;;;;;;9.23;3.20;;;;;;;18.35;67.48;100477.06;15741872;28;20505;-50
2023/08/04 06:25:16;;;;;;;8.77;2.90;;;;;;;19.15;65.73;100487.47;15691818;28;20098;-51
2023/08/04 06:32:49;;;;;;;8.25;2.88;;;;;;;18.77;65.81;100505.97;15678913;28;20052;-52
2023/08/04 06:40:23;;;;;;;9.48;2.80;;;;;;;18.34;67.24;100499.88;15664824;28;20041;-50
2023/08/04 06:47:57;;;;;;;7.68;2.55;;;;;;;19.06;65.36;100536.19;15599434;28;20045;-47
2023/08/04 06:55:31;;;;;;;11.38;2.55;;;;;;;18.67;64.99;100535.84;15599398;28;20052;-48
2023/08/04 07:03:05;;;;;;;8.18;2.47;;;;;;;19.25;64.00;100541.88;15617180;28;20048;-50
2023/08/04 07:10:40;;;;;;;8.35;2.58;;;;;;;20.31;63.05;100545.47;15604727;28;20094;-49
2023/08/04 07:18:13;;;;;;;10.02;2.50;;;;;;;20.11;62.23;100545.59;15721673;28;20039;-57
2023/08/04 07:25:56;;;;;;;7.75;2.70;;;;;;;19.68;63.40;100563.38;15721283;28;20408;-48
2023/08/04 07:33:30;;;;;;;8.50;2.75;;;;;;;20.36;63.40;100570.00;15743565;28;20053;-48
2023/08/04 07:41:04;;;;;;;7.40;2.70;;;;;;;21.37;59.57;100572.41;15751171;28;20044;-51
2023/08/04 07:48:40;;;;;;;9.80;2.47;;;;;;;19.26;62.92;100597.97;15751883;28;20509;-48
2023/08/04 07:56:15;;;;;;;8.68;2.53;;;;;;;20.02;63.08;100591.66;15751382;28;20044;-54
2023/08/04 08:03:47;;;;;;;10.05;2.45;;;;;;;20.34;59.70;100590.47;15750316;28;20044;-52
2023/08/04 08:11:22;;;;;;;9.07;2.58;;;;;;;19.40;60.98;100605.56;15723287;28;20043;-50
2023/08/04 08:18:57;;;;;;;4.80;2.25;;;;;;;20.32;57.71;100606.25;15687216;28;20530;-53
2023/08/04 08:26:31;;;;;;;8.60;2.38;;;;;;;21.23;55.34;100606.91;15650235;28;20077;-52
2023/08/04 08:34:04;;;;;;;8.98;2.38;;;;;;;22.15;54.77;100615.94;15649686;28;20104;-53
2023/08/04 08:41:39;;;;;;;12.80;2.47;;;;;;;21.39;55.71;100633.00;15659856;28;20407;-49
2023/08/04 08:49:13;;;;;;;6.10;2.10;;;;;;;21.81;56.91;100646.03;15682449;28;20045;-47
2023/08/04 08:56:51;;;;;;;6.95;1.90;;;;;;;21.76;55.31;100643.34;15667230;28;20060;-49
2023/08/04 09:04:24;;;;;;;9.32;2.40;;;;;;;20.93;58.07;100651.56;15674282;28;20060;-53
2023/08/04 09:12:00;;;;;;;5.10;2.00;;;;;;;20.92;54.57;100653.47;15700421;28;20123;-52
2023/08/04 09:19:35;;;;;;;5.88;2.17;;;;;;;20.79;56.25;100665.00;15745102;28;20045;-50
2023/08/04 09:27:10;;;;;;;7.75;2.15;;;;;;;21.28;56.00;100669.66;15727284;28;20044;-48
2023/08/04 09:34:44;;;;;;;7.85;2.40;;;;;;;22.23;56.44;100666.41;15745495;28;20047;-51
2023/08/04 09:42:21;;;;;;;5.55;1.63;;;;;;;23.08;51.09;100665.69;15726503;28;20049;-48
2023/08/04 09:49:55;;;;;;;8.95;1.92;;;;;;;23.38;52.33;100660.84;15725524;28;20079;-50
2023/08/04 09:57:30;;;;;;;4.68;1.60;;;;;;;23.32;47.43;100648.34;15742325;28;20051;-50
2023/08/04 10:05:04;;;;;;;6.45;1.98;;;;;;;23.49;48.92;100654.06;15742798;28;20044;-48
2023/08/04 10:12:39;;;;;;;8.05;1.88;;;;;;;21.86;55.46;100673.28;15722623;28;20045;-48
2023/08/04 10:20:12;;;;;;;6.10;2.20;;;;;;;21.34;62.61;100683.00;15680302;28;20048;-48
2023/08/04 10:27:50;;;;;;;4.65;2.03;;;;;;;22.33;59.86;100676.41;15680779;28;20107;-48
2023/08/04 10:35:24;;;;;;;4.75;2.10;;;;;;;23.75;56.95;100662.72;15695179;28;20051;-51
2023/08/04 10:43:06;;;;;;;3.92;1.80;;;;;;;23.39;52.64;100666.00;15694812;28;20463;-49
2023/08/04 10:50:39;;;;;;;5.25;1.77;;;;;;;22.91;51.67;100671.66;15677314;28;20049;-49
2023/08/04 10:58:15;;;;;;;4.68;1.60;;;;;;;22.34;54.01;100684.34;15677618;28;20040;-51
2023/08/04 11:05:49;;;;;;;6.30;1.88;;;;;;;21.09;56.31;100683.13;15659451;28;20067;-54
2023/08/04 11:13:29;;;;;;;10.75;2.20;;;;;;;21.51;56.32;100684.53;15662296;28;20048;-50
2023/08/04 11:21:02;;;;;;;4.32;1.90;;;;;;;21.21;56.59;100678.13;15677117;28;20068;-49
2023/08/04 11:28:38;;;;;;;6.22;1.88;;;;;;;20.94;56.86;100683.19;15676907;28;20402;-54
2023/08/04 11:36:13;;;;;;;8.93;2.40;;;;;;;21.11;57.28;100695.38;15660359;28;20520;-47
2023/08/04 11:43:49;;;;;;;6.53;2.25;;;;;;;22.82;53.42;100694.47;15659729;28;20037;-51
2023/08/04 11:51:32;;;;;;;7.25;2.13;;;;;;;23.65;51.38;100695.78;15677247;28;20409;-53
2023/08/04 11:59:13;;;;;;;6.43;2.03;;;;;;;22.54;51.93;100710.66;15658635;28;20064;-49
2023/08/04 12:06:47;;;;;;;6.65;2.10;;;;;;;22.53;53.50;100730.09;15691061;22;20049;-55
2023/08/04 12:14:22;;;;;;;5.95;1.50;;;;;;;22.84;51.51;100730.53;15657495;28;20107;-57
2023/08/04 12:21:57;;;;;;;5.38;1.55;;;;;;;22.56;48.27;100729.50;15663450;28;20041;-56
2023/08/04 12:29:32;;;;;;;5.75;1.67;;;;;;;23.81;48.95;100721.81;15686734;28;20638;-58
2023/08/04 12:37:06;;;;;;;5.47;1.85;;;;;;;23.89;50.08;100721.16;15668633;28;20528;-58
2023/08/04 12:44:40;;;;;;;4.05;1.80;;;;;;;23.17;51.48;100737.84;15667991;28;20049;-55
2023/08/04 12:52:14;;;;;;;6.45;2.00;;;;;;;22.15;53.50;100755.38;15667454;28;20394;-56
2023/08/04 12:59:48;;;;;;;5.70;1.83;;;;;;;22.13;53.38;100762.22;15667314;28;20083;-58
2023/08/04 13:07:21;;;;;;;4.13;1.85;;;;;;;22.39;51.27;100766.34;15667831;28;20449;-56
2023/08/04 13:14:55;;;;;;;3.15;1.70;;;;;;;22.45;51.64;100769.03;15646258;28;20046;-57
2023/08/04 13:22:28;;;;;;;3.05;1.58;;;;;;;22.72;51.32;100772.03;15621847;28;20525;-57
2023/08/04 13:30:03;;;;;;;3.40;1.70;;;;;;;23.34;50.75;100777.59;15619444;28;20080;-55
2023/08/04 13:37:37;;;;;;;3.97;1.55;;;;;;;23.48;47.32;100764.78;15620998;28;20418;-57
2023/08/04 13:45:12;;;;;;;5.65;1.77;;;;;;;24.98;47.55;100743.53;15620643;28;20132;-58
2023/08/04 13:52:44;;;;;;;4.85;1.50;;;;;;;24.90;44.28;100739.59;15618794;28;20141;-57
2023/08/04 14:00:19;;;;;;;3.85;1.50;;;;;;;23.33;47.85;100762.25;15619210;28;20041;-57
2023/08/04 14:07:52;;;;;;;6.00;1.52;;;;;;;23.54;49.42;100751.81;15619303;28;20091;-58
2023/08/04 14:15:26;;;;;;;3.65;1.50;;;;;;;22.76;49.35;100756.66;15661110;28;20045;-57
2023/08/04 14:22:59;;;;;;;4.95;1.23;;;;;;;23.31;48.89;100754.31;15662048;28;20103;-57
2023/08/04 14:30:34;;;;;;;4.15;1.70;;;;;;;23.03;48.21;100779.91;15660071;28;20060;-57
2023/08/04 14:38:07;;;;;;;5.57;1.70;;;;;;;23.19;48.06;100780.53;15679977;28;20051;-56
2023/08/04 14:45:42;;;;;;;13.88;2.05;;;;;;;22.97;45.93;100794.75;15679081;28;20083;-55
2023/08/04 14:53:15;;;;;;;6.70;1.30;;;;;;;22.63;45.81;100798.38;15679400;28;20071;-54
2023/08/04 15:00:50;;;;;;;4.90;1.40;;;;;;;23.52;47.17;100789.66;15660284;28;20071;-55
2023/08/04 15:08:23;;;;;;;3.25;1.55;;;;;;;23.82;44.00;100786.50;15660247;28;20048;-54
2023/08/04 15:16:00;;;;;;;5.10;1.67;;;;;;;22.63;46.60;100777.31;15659963;28;20045;-56
2023/08/04 15:23:33;;;;;;;4.10;1.40;;;;;;;23.08;45.44;100771.63;15676457;28;20477;-56
2023/08/04 15:31:09;;;;;;;4.72;1.70;;;;;;;23.01;47.61;100755.56;15659054;28;20049;-53
2023/08/04 15:38:42;;;;;;;2.72;1.60;;;;;;;22.97;45.89;100767.38;15677401;28;20128;-55
2023/08/04 15:46:16;;;;;;;4.45;1.60;;;;;;;23.13;44.76;100764.19;15677156;28;20041;-56
2023/08/04 15:53:51;;;;;;;6.55;1.63;;;;;;;22.87;45.94;100769.09;15679502;28;20119;-54
2023/08/04 16:01:25;;;;;;;3.88;1.48;;;;;;;22.74;45.28;100760.78;15688161;28;20115;-58
2023/08/04 16:08:59;;;;;;;4.82;1.58;;;;;;;22.75;45.55;100770.59;15669814;28;20057;-55
2023/08/04 16:16:34;;;;;;;4.90;1.70;;;;;;;22.61;45.89;100773.22;15687653;28;20114;-55
2023/08/04 16:24:08;;;;;;;6.38;1.60;;;;;;;23.01;45.90;100757.47;15687545;28;20051;-56
2023/08/04 16:31:42;;;;;;;5.38;1.50;;;;;;;23.28;44.81;100760.41;15686992;28;20053;-56
2023/08/04 16:39:15;;;;;;;3.72;1.67;;;;;;;23.18;45.74;100763.28;15686929;28;20509;-54
2023/08/04 16:46:51;;;;;;;5.10;1.80;;;;;;;22.89;46.13;100772.38;15686039;28;20053;-57
2023/08/04 16:54:24;;;;;;;4.55;1.70;;;;;;;23.29;44.92;100763.97;15686355;28;20053;-57
2023/08/04 17:01:58;;;;;;;3.05;1.40;;;;;;;22.58;46.05;100771.91;15685126;28;20041;-57
2023/08/04 17:09:32;;;;;;;2.80;1.50;;;;;;;23.27;44.05;100766.16;15683824;28;20076;-56
2023/08/04 17:17:07;;;;;;;4.60;1.38;;;;;;;23.07;45.04;100750.81;15620730;28;20136;-57
2023/08/04 17:24:41;;;;;;;2.40;1.40;;;;;;;23.20;44.64;100757.50;15622330;28;20046;-54
2023/08/04 17:32:16;;;;;;;4.13;1.35;;;;;;;22.85;45.38;100759.56;15621339;28;20049;-56
2023/08/04 17:39:49;;;;;;;2.47;1.30;;;;;;;22.25;44.16;100770.84;15639819;28;20048;-52
2023/08/04 17:47:24;;;;;;;2.53;1.00;;;;;;;22.26;45.26;100779.88;15682563;28;20053;-56
2023/08/04 17:54:57;;;;;;;5.32;1.30;;;;;;;22.53;45.75;100785.63;15664356;28;20040;-56
2023/08/04 18:02:31;;;;;;;2.70;1.30;;;;;;;22.44;47.35;100783.81;15663301;28;20049;-56
2023/08/04 18:10:05;;;;;;;2.20;1.17;;;;;;;21.94;47.82;100805.78;15645523;22;20536;-56
2023/08/04 18:17:40;;;;;;;2.83;1.40;;;;;;;22.22;48.05;100811.63;15597180;28;20210;-57
2023/08/04 18:25:13;;;;;;;4.13;1.52;;;;;;;21.51;49.31;100832.84;15614452;28;20285;-57
2023/08/04 18:32:48;;;;;;;3.15;1.70;;;;;;;21.66;49.77;100840.13;15595156;28;20073;-58
2023/08/04 18:40:21;;;;;;;5.07;1.80;;;;;;;21.51;50.92;100854.69;15594574;28;20071;-53
2023/08/04 18:47:55;;;;;;;9.05;2.47;;;;;;;21.44;51.08;100856.06;15611826;28;20152;-54
2023/08/04 18:55:29;;;;;;;5.68;2.45;;;;;;;21.25;51.95;100870.31;15577185;28;20042;-55
2023/08/04 19:03:04;;;;;;;6.13;2.83;;;;;;;21.03;52.39;100889.78;15576659;28;20346;-56
2023/08/04 19:10:37;;;;;;;7.03;4.72;;;;;;;20.66;53.87;100892.81;15589796;28;20389;-55
2023/08/04 19:18:11;;;;;;;4.72;3.08;;;;;;;20.45;53.74;100904.78;15548274;28;20422;-54
2023/08/04 19:25:44;;;;;;;3.40;2.83;;;;;;;20.19;55.26;100910.22;15548908;28;20062;-57
2023/08/04 19:33:19;;;;;;;7.00;3.85;;;;;;;19.85;56.21;100912.56;15531537;28;20065;-57
2023/08/04 19:40:52;;;;;;;5.80;3.35;;;;;;;19.80;57.32;100918.81;15547999;28;20534;-56
2023/08/04 19:48:27;;;;;;;5.68;4.93;;;;;;;19.57;57.83;100930.94;15547792;28;20050;-56
2023/08/04 19:56:00;;;;;;;8.30;6.55;;;;;;;19.31;59.66;100929.22;15547158;28;20128;-56
2023/08/04 20:03:34;;;;;;;;;;;;;;;19.03;60.88;100938.56;15548107;28;20152;-57
2023/08/04 20:11:07;;;;;;;8.10;5.20;;;;;;;18.72;61.89;100938.31;15554334;28;19927;-55
2023/08/04 20:18:42;;;;;;;6.22;4.68;;;;;;;18.57;62.34;100941.69;15608498;28;20076;-56
2023/08/04 20:26:15;;;;;;;4.50;3.17;;;;;;;18.50;62.44;100946.50;15608313;28;20053;-53
2023/08/04 20:33:54;;;;;;;5.13;3.53;;;;;;;18.39;61.85;100938.53;15615053;28;20049;-55
2023/08/04 20:41:28;;;;;;;5.63;3.33;;;;;;;18.18;62.72;100941.03;15672615;28;20037;-53
2023/08/04 20:49:04;;;;;;;6.47;3.67;;;;;;;18.07;63.97;100961.84;15680331;28;20128;-55
2023/08/04 20:56:37;;;;;;;6.50;3.92;;;;;;;18.01;63.93;100962.88;15662946;28;20067;-56
2023/08/04 21:04:11;;;;;;;7.63;5.50;;;;;;;18.00;64.64;100963.09;15679530;28;20052;-57
2023/08/04 21:11:45;;;;;;;13.10;7.45;;;;;;;17.55;65.73;100964.97;15648751;28;20041;-57
2023/08/04 21:19:22;;;;;;;9.63;6.28;;;;;;;17.60;66.17;100981.31;15616701;28;20053;-57
2023/08/04 21:26:55;;;;;;;7.68;5.40;;;;;;;17.47;66.27;100978.97;15582646;28;20132;-56
2023/08/04 21:34:29;;;;;;;8.88;5.88;;;;;;;17.31;67.14;100974.41;15615962;28;20071;-54
2023/08/04 21:42:02;;;;;;;8.60;5.70;;;;;;;17.39;66.38;100975.84;15614927;28;20046;-54
2023/08/04 21:49:36;;;;;;;8.88;6.55;;;;;;;17.18;66.83;100966.63;15598291;28;20047;-55
2023/08/04 21:57:10;;;;;;;11.82;7.40;;;;;;;17.12;66.94;100959.47;15614739;28;20041;-56
2023/08/04 22:04:45;;;;;;;13.25;8.40;;;;;;;16.83;68.40;100963.09;15613701;28;20125;-55
2023/08/04 22:12:19;;;;;;;14.93;10.48;;;;;;;16.76;68.03;100967.84;15579073;28;20053;-56
2023/08/04 22:19:54;;;;;;;12.00;7.82;;;;;;;16.72;68.54;100974.81;15551247;28;20045;-52
2023/08/04 22:27:27;;;;;;;14.20;8.30;;;;;;;16.62;68.15;100992.78;15549786;28;20046;-56
2023/08/04 22:35:01;;;;;;;12.90;9.25;;;;;;;16.52;68.75;100988.81;15551539;28;20482;-56
2023/08/04 22:42:34;;;;;;;11.43;8.45;;;;;;;16.43;69.31;100994.88;15549746;28;20415;-55
2023/08/04 22:50:09;;;;;;;8.95;7.18;;;;;;;16.47;68.59;101018.53;15548941;28;20041;-54
2023/08/04 22:57:42;;;;;;;11.77;7.60;;;;;;;16.47;68.52;101009.59;15549843;28;20503;-52
2023/08/04 23:05:18;;;;;;;12.23;7.10;;;;;;;16.20;69.30;101014.75;15547491;28;20133;-55
2023/08/04 23:12:52;;;;;;;13.88;7.80;;;;;;;16.30;68.77;101017.66;15570004;28;20057;-54
2023/08/04 23:20:26;;;;;;;8.73;7.30;;;;;;;16.18;68.93;101011.44;15609689;28;20049;-56
2023/08/04 23:27:59;;;;;;;12.57;8.73;;;;;;;16.13;68.91;100997.81;15610301;28;20116;-54
2023/08/04 23:35:33;;;;;;;14.57;8.53;;;;;;;16.06;69.07;100990.66;15609799;28;20498;-53
2023/08/04 23:43:06;;;;;;;13.40;9.00;;;;;;;16.00;69.09;100993.50;15609409;28;20053;-52
2023/08/04 23:50:41;;;;;;;12.85;7.93;;;;;;;15.74;69.91;100989.44;15609318;28;20056;-56
2023/08/04 23:58:14;;;;;;;9.43;7.80;;;;;;;15.88;69.15;101004.34;15590725;28;20051;-55
